Latest Weather Observations for St George

IDQ60801

Issued at 2:02 pm EST Sunday 2 August 2015 (issued every 30 minutes, with the page automatically refreshed every 10 minutes)

About weather observations | Map of weather stations | Latest weather observations for QLD | Other Formats
Station Details ID: 043109 Name: ST GEORGE AIRPORT Lat: -28.05 Lon: 148.59 Height: 198.5 m
Data from the previous 72 hours. | See also: Recent months at St George
Date/Time
EST
Temp
°C
App
Temp
°C
Dew
Point
Rel
Hum
%
Delta-T
°C
Wind Press
QNH
hPa
Press
MSL
hPa
Rain
since 9 am
mm
Dir
 
Spd
km/h
Gust
km/h
Spd
kts
Gust
kts
02/02:00pm 25.9 21.1 5.5 27 10.5 NNW 20 30 11 16 1017.0 - 0.0
02/01:30pm 25.9 21.9 8.4 33 9.5 NNW 19 24 10 13 1017.5 - 0.0
02/01:00pm 25.5 20.9 6.7 30 9.9 NNW 20 30 11 16 1018.0 - 0.0
02/12:30pm 24.8 20.5 7.9 34 9.1 N 20 30 11 16 1018.6 - 0.0
02/12:00pm 24.0 19.4 6.7 33 9.0 NNW 20 32 11 17 1019.3 1019.2 0.0
02/11:30am 23.5 19.2 7.2 35 8.6 N 19 30 10 16 1019.8 - 0.0
02/11:00am 22.4 18.1 7.8 39 7.7 N 20 28 11 15 1020.3 - 0.0
02/10:30am 21.0 16.8 7.3 41 7.1 NNW 19 30 10 16 1020.6 - 0.0
02/10:00am 19.5 15.7 7.6 46 6.1 N 17 22 9 12 1020.9 - 0.0
02/09:30am 18.1 14.2 7.2 49 5.5 N 17 24 9 13 1021.1 - 0.0
02/09:00am 17.6 13.3 6.8 49 5.4 N 19 24 10 13 1020.9 1020.8 0.0
02/08:30am 15.7 11.2 5.9 52 4.8 N 19 24 10 13 1020.6 - 0.0
02/08:00am 14.3 9.7 5.4 55 4.2 N 19 26 10 14 1020.5 - 0.0
02/07:30am 12.7 8.4 5.4 61 3.4 N 17 22 9 12 1020.5 - 0.0
02/07:00am 11.9 7.9 5.1 63 3.2 N 15 19 8 10 1020.3 - 0.0
02/06:30am 11.7 8.1 4.9 63 3.1 N 13 17 7 9 1020.0 - 0.0
02/06:00am 11.9 8.6 4.4 60 3.4 N 11 17 6 9 1019.8 1019.7 0.0
02/05:30am 12.8 8.8 4.8 58 3.7 N 15 20 8 11 1019.4 - 0.0
02/05:00am 13.3 8.9 4.5 55 4.1 N 17 20 9 11 1019.1 - 0.0
02/04:30am 13.9 9.8 4.5 53 4.4 N 15 22 8 12 1019.1 - 0.0
02/04:00am 14.4 9.6 4.4 51 4.7 N 19 24 10 13 1019.1 - 0.0
02/03:30am 14.4 9.9 4.4 51 4.7 N 17 24 9 13 1019.1 - 0.0
02/03:00am 14.1 9.6 4.4 52 4.5 N 17 24 9 13 1019.4 1019.3 0.0
02/02:30am 14.0 9.9 4.6 53 4.4 N 15 17 8 9 1019.4 - 0.0
02/02:00am 13.6 10.0 5.0 56 4.0 N 13 17 7 9 1019.4 - 0.0
02/01:30am 13.7 9.7 5.1 56 4.1 N 15 19 8 10 1019.5 - 0.0
02/01:00am 12.0 8.9 5.4 64 3.1 NNE 11 13 6 7 1019.7 - 0.0
02/12:30am 10.1 7.7 5.1 71 2.3 NE 7 9 4 5 1019.9 - 0.0
02/12:00am 10.4 7.7 5.8 73 2.1 NE 9 11 5 6 1020.2 1020.1 0.0
 
Date/Time
EST
Temp
°C
App
Temp
°C
Dew
Point
Rel
Hum
%
Delta-T
°C
Wind Press
QNH
hPa
Press
MSL
hPa
Rain
since 9 am
mm
Dir
 
Spd
km/h
Gust
km/h
Spd
kts
Gust
kts
01/11:30pm 10.2 8.0 6.0 75 2.0 NE 7 9 4 5 1020.4 - 0.0
01/11:00pm 10.9 8.4 6.5 74 2.1 NE 9 11 5 6 1020.5 - 0.0
01/10:30pm 10.4 8.3 6.7 78 1.8 NE 7 7 4 4 1020.4 - 0.0
01/10:00pm 10.7 8.8 6.8 77 1.9 NE 6 7 3 4 1020.6 - 0.0
01/09:30pm 11.1 9.1 7.0 76 2.0 ENE 7 9 4 5 1020.6 - 0.0
01/09:00pm 11.4 9.5 6.7 73 2.2 NE 6 6 3 3 1020.5 1020.4 0.0
01/08:30pm 12.1 10.3 7.0 71 2.5 NE 6 7 3 4 1020.6 - 0.0
01/08:00pm 12.6 10.6 6.4 66 3.0 ENE 6 7 3 4 1020.5 - 0.0
01/07:30pm 13.5 12.7 6.6 63 3.4 CALM 0 0 0 0 1020.2 - 0.0
01/07:00pm 14.5 12.8 6.1 57 4.1 ENE 4 6 2 3 1020.0 - 0.0
01/06:30pm 15.7 13.7 6.4 54 4.6 ENE 6 7 3 4 1019.8 - 0.0
01/06:00pm 17.5 15.3 6.4 48 5.5 ENE 7 9 4 5 1019.6 1019.5 0.0
01/05:30pm 20.9 18.4 4.5 34 8.1 ENE 7 9 4 5 1019.5 - 0.0
01/05:00pm 23.4 20.7 2.8 26 10.0 NE 6 9 3 5 1019.4 - 0.0
01/04:30pm 24.4 21.3 1.3 22 10.9 N 7 11 4 6 1019.4 - 0.0
01/04:00pm 24.6 21.3 2.7 24 10.7 NNW 9 13 5 7 1019.2 - 0.0
01/03:30pm 24.6 20.8 1.5 22 11.0 N 11 17 6 9 1019.3 - 0.0
01/03:00pm 24.6 20.9 4.4 27 10.1 N 13 19 7 10 1019.4 1019.3 0.0
01/02:30pm 24.2 20.2 2.9 25 10.4 N 13 20 7 11 1019.6 - 0.0
01/02:00pm 23.9 20.1 3.8 27 9.9 N 13 20 7 11 1019.8 - 0.0
01/01:30pm 23.3 19.1 3.8 28 9.6 NNW 15 20 8 11 1020.3 - 0.0
01/01:00pm 23.0 19.2 4.0 29 9.4 N 13 20 7 11 1021.0 - 0.0
01/12:30pm 22.5 18.1 5.0 32 8.8 N 17 22 9 12 1021.5 - 0.0
01/12:00pm 21.6 16.4 3.8 31 8.6 N 20 28 11 15 1022.0 1021.9 0.0
01/11:30am 21.2 16.4 5.5 36 7.9 N 20 28 11 15 1022.4 - 0.0
01/11:00am 19.9 14.9 3.6 34 7.8 N 19 26 10 14 1022.7 - 0.0
01/10:30am 18.9 13.9 3.5 36 7.3 N 19 28 10 15 1022.7 - 0.0
01/10:00am 18.0 13.1 3.9 39 6.7 N 19 28 10 15 1022.8 - 0.0
01/09:30am 16.6 12.5 4.3 44 5.8 N 15 22 8 12 1022.9 - 0.0
01/09:00am 14.9 10.1 4.6 50 4.8 N 19 24 10 13 1023.0 1022.9 0.0
01/08:30am 12.6 9.0 5.1 60 3.5 N 13 17 7 9 1022.9 - 0.0
01/08:00am 10.7 6.7 5.0 68 2.6 N 15 19 8 10 1022.4 - 0.0
01/07:30am 9.0 6.6 5.2 77 1.7 N 7 9 4 5 1022.4 - 0.0
01/07:00am 8.0 5.0 4.2 77 1.7 N 9 11 5 6 1022.1 - 0.0
01/06:30am 8.0 5.0 4.2 77 1.7 N 9 13 5 7 1021.8 - 0.0
01/06:00am 7.6 4.2 4.0 78 1.6 NNE 11 13 6 7 1021.4 1021.3 0.0
01/05:30am 7.2 4.4 5.0 86 1.0 NNE 9 11 5 6 1021.3 - 0.0
01/05:00am 5.3 2.6 3.5 88 0.8 NNE 7 9 4 5 1021.4 - 0.0
01/04:30am 6.0 3.1 4.5 90 0.7 NNE 9 9 5 5 1021.3 - 0.0
01/04:00am 5.6 3.0 4.1 90 0.6 NNE 7 9 4 5 1021.2 - 0.0
01/03:30am 5.7 3.2 3.9 88 0.8 NNE 6 7 3 4 1021.3 - 0.0
01/03:00am 5.6 2.9 3.8 88 0.8 NNE 7 9 4 5 1021.4 1021.3 0.0
01/02:30am 6.0 4.0 4.2 88 0.8 NE 4 7 2 4 1021.8 - 0.0
01/02:00am 6.7 5.6 5.3 91 0.6 CALM 0 0 0 0 1022.1 - 0.0
01/01:30am 6.2 5.0 4.4 88 0.8 CALM 0 0 0 0 1022.2 - 0.0
01/01:00am 6.9 5.8 5.1 88 0.8 CALM 0 0 0 0 1022.6 - 0.0
01/12:30am 6.9 5.8 4.9 87 0.9 CALM 0 0 0 0 1022.7 - 0.0
01/12:00am 7.2 6.1 5.0 86 1.0 CALM 0 0 0 0 1022.8 1022.7 0.0
 
Date/Time
EST
Temp
°C
App
Temp
°C
Dew
Point
Rel
Hum
%
Delta-T
°C
Wind Press
QNH
hPa
Press
MSL
hPa
Rain
since 9 am
mm
Dir
 
Spd
km/h
Gust
km/h
Spd
kts
Gust
kts
31/11:30pm 7.6 6.5 5.2 85 1.1 CALM 0 0 0 0 1022.8 - 0.0
31/11:00pm 8.1 7.0 5.2 82 1.3 CALM 0 0 0 0 1022.6 - 0.0
31/10:30pm 8.3 7.2 5.1 80 1.4 CALM 0 0 0 0 1022.6 - 0.0
31/10:00pm 9.0 7.9 5.2 77 1.7 CALM 0 0 0 0 1022.7 - 0.0
31/09:30pm 9.3 8.2 5.3 76 1.8 CALM 0 0 0 0 1022.5 - 0.0
31/09:00pm 9.5 8.4 5.3 75 1.9 CALM 0 0 0 0 1022.6 1022.7 0.0
31/08:30pm 10.3 9.4 5.9 74 2.1 CALM 0 0 0 0 1022.3 - 0.0
31/08:00pm 10.9 9.9 5.4 69 2.6 CALM 0 0 0 0 1022.2 - 0.0
31/07:30pm 11.7 10.7 5.6 66 2.9 CALM 0 0 0 0 1022.1 - 0.0
31/07:00pm 13.0 11.8 4.7 57 3.9 CALM 0 2 0 1 1021.8 - 0.0
31/06:30pm 14.4 12.4 4.4 51 4.7 SE 4 6 2 3 1021.5 - 0.0
31/06:00pm 15.9 13.6 4.6 47 5.3 SE 6 7 3 4 1021.3 1021.4 0.0
31/05:30pm 19.1 16.3 3.3 35 7.5 SE 7 9 4 5 1021.1 - 0.0
31/05:00pm 21.3 19.6 1.6 27 9.2 CALM 0 0 0 0 1020.9 - 0.0
31/04:30pm 21.6 18.8 3.3 30 8.8 SW 7 11 4 6 1020.8 - 0.0
31/04:00pm 22.0 18.4 0.5 24 9.9 S 9 11 5 6 1020.7 - 0.0
31/03:30pm 23.0 20.4 3.0 27 9.7 SSW 6 11 3 6 1020.7 - 0.0
31/03:00pm 23.1 19.9 0.9 23 10.3 NW 7 11 4 6 1021.1 1021.2 0.0
31/02:30pm 22.5 19.0 1.5 25 9.8 W 9 19 5 10 1021.1 - 0.0
31/02:00pm 22.7 19.2 1.1 24 10.1 WNW 9 19 5 10 1021.3 - 0.0
31/01:30pm 21.9 18.0 1.0 25 9.7 NNW 11 19 6 10 1021.4 - 0.0
31/01:00pm 21.6 17.3 1.3 26 9.4 NW 13 19 7 10 1022.0 - 0.0
31/12:30pm 21.4 18.1 2.2 28 9.0 N 9 20 5 11 1022.6 - 0.0
31/12:00pm 21.0 17.2 4.1 33 8.2 NNW 13 17 7 9 1023.2 1023.3 0.0
31/11:30am 20.0 16.0 4.9 37 7.4 NNW 15 19 8 10 1023.6 - 0.0
31/11:00am 18.8 15.3 5.6 42 6.5 N 13 19 7 10 1024.1 - 0.0
31/10:30am 18.2 14.8 6.1 45 6.0 N 13 19 7 10 1024.4 - 0.0
31/10:00am 16.7 13.4 6.5 51 5.1 N 13 17 7 9 1024.6 - 0.0
31/09:30am 15.4 11.7 6.1 54 4.5 N 15 20 8 11 1024.5 - 0.0
31/09:00am 14.0 11.1 6.4 60 3.7 N 11 15 6 8 1024.5 1024.6 0.0
31/08:30am 12.0 9.0 5.9 66 2.9 N 11 13 6 7 1024.1 - 0.0
31/08:00am 10.4 7.5 6.4 76 1.9 N 11 17 6 9 1023.9 - 0.0
31/07:30am 7.8 5.1 5.8 87 0.9 N 9 13 5 7 1023.5 - 0.0
31/07:00am 5.4 2.6 2.9 84 1.0 N 7 9 4 5 1023.4 - 0.0
31/06:30am 6.5 3.1 3.8 83 1.2 N 11 13 6 7 1023.2 - 0.0
31/06:00am 4.7 1.7 2.1 83 1.0 N 7 9 4 5 1022.8 1022.9 0.0
31/05:30am 5.9 3.7 3.2 83 1.1 N 4 6 2 3 1022.8 - 0.0
31/05:00am 7.4 4.7 3.6 77 1.6 N 7 11 4 6 1022.4 - 0.0
31/04:30am 8.6 5.3 4.6 76 1.8 N 11 13 6 7 1022.2 - 0.0
31/04:00am 7.7 4.9 5.3 85 1.1 N 9 11 5 6 1022.0 - 0.0
31/03:30am 6.1 3.4 3.9 86 0.9 N 7 9 4 5 1022.3 - 0.0
31/03:00am 6.0 3.4 4.2 88 0.8 N 7 9 4 5 1022.4 1022.5 0.0
31/02:30am 6.6 4.6 4.6 87 0.9 NNW 4 6 2 3 1022.6 - 0.0
31/02:00am 7.1 4.9 5.3 88 0.8 NNW 6 9 3 5 1022.6 - 0.0
31/01:30am 7.3 4.7 5.9 91 0.6 N 9 11 5 6 1022.8 - 0.0
31/01:00am 6.7 5.6 5.2 90 0.7 CALM 0 0 0 0 1023.7 - 0.0
31/12:30am 6.2 5.0 4.5 89 0.7 CALM 0 0 0 0 1023.7 - 0.0
31/12:00am 6.7 5.6 5.0 89 0.7 CALM 0 0 0 0 1023.7 1023.8 0.0
 
Date/Time
EST
Temp
°C
App
Temp
°C
Dew
Point
Rel
Hum
%
Delta-T
°C
Wind Press
QNH
hPa
Press
MSL
hPa
Rain
since 9 am
mm
Dir
 
Spd
km/h
Gust
km/h
Spd
kts
Gust
kts
30/11:30pm 6.8 5.7 5.0 88 0.8 CALM 0 0 0 0 1023.9 - 0.0
30/11:00pm 7.1 6.0 5.1 87 0.9 CALM 0 0 0 0 1023.8 - 0.0
30/10:30pm 7.6 6.6 5.7 88 0.9 CALM 0 6 0 3 1023.7 - 0.0
30/10:00pm 7.9 6.9 5.7 86 1.0 CALM 0 0 0 0 1024.2 - 0.0
30/09:30pm 8.6 7.7 6.2 85 1.1 CALM 0 0 0 0 1024.4 - 0.0
30/09:00pm 9.3 8.5 6.6 83 1.3 CALM 0 0 0 0 1024.3 1024.4 0.0
30/08:30pm 9.2 8.3 5.9 80 1.5 CALM 0 0 0 0 1024.3 - 0.0
30/08:00pm 10.2 9.4 6.5 78 1.7 CALM 0 0 0 0 1024.0 - 0.0
30/07:30pm 11.0 9.1 6.7 75 2.1 ENE 6 7 3 4 1023.9 - 0.0
30/07:00pm 12.0 9.9 6.7 70 2.6 ENE 7 9 4 5 1023.9 - 0.0
30/06:30pm 13.0 11.1 6.8 66 3.0 E 6 7 3 4 1023.6 - 0.0
30/06:00pm 15.0 13.3 6.0 55 4.3 E 4 6 2 3 1023.4 1023.5 0.0
30/05:30pm 18.1 16.0 5.7 44 6.1 NE 6 7 3 4 1023.3 - 0.0
30/05:00pm 19.7 17.0 3.8 35 7.6 N 7 9 4 5 1023.4 - 0.0
30/04:30pm 20.4 17.6 3.2 32 8.2 NNE 7 11 4 6 1023.6 - 0.0
30/04:00pm 20.5 17.4 3.7 33 8.1 NW 9 15 5 8 1023.7 - 0.0
30/03:30pm 21.0 18.3 3.7 32 8.4 W 7 13 4 7 1023.9 - 0.0
30/03:00pm 21.3 19.5 5.6 36 7.9 WSW 4 13 2 7 1024.1 1024.2 0.0
30/02:30pm 20.5 18.0 4.9 36 7.7 WNW 7 11 4 6 1024.2 - 0.0

Other Formats:

Comma delimited format used in spreadsheet applications
http://www.bom.gov.au/fwo/IDQ60801/IDQ60801.94517.axf

JavaScript Object Notation format (JSON) in row-major order
http://www.bom.gov.au/fwo/IDQ60801/IDQ60801.94517.json